Terminal Aerodrome Forecast
Issued by NWS

Home | Current Version | Previous Version | Text Only | Print | Product List | Glossary Off
Versions: 1 2 3 4 5 6 7 8 9 10 11 12

000
FTUS43 KTOP 211723
TAFMHK
TAF
KMHK 211723Z 2118/2218 06009KT P6SM OVC070
     FM212000 07012G20KT P6SM OVC080
     FM220000 05014G23KT P6SM -RA OVC050
     FM220400 04011KT 6SM -RA SCT020 OVC040
     FM221100 03007KT P6SM SCT030 OVC050=

USA.gov is the U.S. government's official web portal to all federal, state and local government web resources and services.